createdAt,value
2022-08-14T00:05:13.011Z,60.03
2022-08-14T00:15:19.377Z,60.31
2022-08-14T00:25:41.652Z,60.60
2022-08-14T00:36:36.735Z,60.67
2022-08-14T00:46:23.253Z,60.80
2022-08-14T00:56:34.840Z,61.09
2022-08-14T01:06:39.511Z,61.58
2022-08-14T01:16:42.810Z,61.94
2022-08-14T01:26:53.284Z,62.28
2022-08-14T01:36:55.996Z,62.00
2022-08-14T01:47:01.766Z,62.57
2022-08-14T01:57:11.485Z,62.63
2022-08-14T02:07:15.992Z,62.92
2022-08-14T02:17:23.634Z,62.92
2022-08-14T02:28:24.891Z,63.05
2022-08-14T02:37:51.862Z,63.28
2022-08-14T02:47:57.584Z,63.82
2022-08-14T02:58:03.393Z,63.98
2022-08-14T03:08:11.111Z,64.14
2022-08-14T03:18:15.338Z,64.53
2022-08-14T03:28:32.935Z,64.86
2022-08-14T03:39:13.081Z,64.69
2022-08-14T03:49:08.695Z,65.05
2022-08-14T03:59:17.855Z,65.24
2022-08-14T04:09:22.303Z,66.12
2022-08-14T04:19:36.372Z,66.92
2022-08-14T04:29:42.375Z,67.17
2022-08-14T04:40:03.351Z,67.43
2022-08-14T04:50:09.140Z,67.75
2022-08-14T05:00:16.189Z,67.36
2022-08-14T05:10:25.951Z,68.25
2022-08-14T05:21:54.740Z,67.87
2022-08-14T05:31:00.916Z,67.64
2022-08-14T05:41:06.435Z,67.33
2022-08-14T05:51:13.444Z,67.01
2022-08-14T06:01:16.524Z,66.45
2022-08-14T06:11:30.759Z,65.62
2022-08-14T06:21:34.081Z,65.59
2022-08-14T06:31:39.279Z,64.92
2022-08-14T06:41:57.213Z,63.97
2022-08-14T06:52:03.076Z,63.96
2022-08-14T07:02:29.147Z,63.30
2022-08-14T07:12:54.087Z,62.00
2022-08-14T07:23:01.396Z,60.35
2022-08-14T07:33:12.681Z,58.70
2022-08-14T07:43:16.445Z,58.72
2022-08-14T07:53:21.657Z,58.32
2022-08-14T08:03:27.980Z,56.04
2022-08-14T08:13:34.787Z,55.81
2022-08-14T08:23:43.579Z,54.84
2022-08-14T08:33:55.421Z,54.64
2022-08-14T08:44:16.971Z,53.78
2022-08-14T08:54:26.759Z,52.85
2022-08-14T09:04:37.286Z,52.07
2022-08-14T09:14:53.163Z,51.71
2022-08-14T09:24:56.279Z,50.92
2022-08-14T09:35:09.496Z,49.13
2022-08-14T09:45:17.021Z,48.56
2022-08-14T09:55:22.234Z,47.54
2022-08-14T10:05:31.494Z,46.39
2022-08-14T10:15:46.775Z,45.06
2022-08-14T10:25:53.133Z,44.77
2022-08-14T10:36:00.542Z,42.77
2022-08-14T10:46:59.515Z,41.49
2022-08-14T10:56:34.965Z,41.94
2022-08-14T11:06:38.797Z,41.33
2022-08-14T11:16:53.669Z,40.70
2022-08-14T11:26:57.400Z,39.58
2022-08-14T11:37:21.960Z,37.40
2022-08-14T11:47:35.543Z,39.72
2022-08-14T11:58:03.312Z,30.77
2022-08-14T12:08:12.138Z,26.68
2022-08-14T12:18:19.803Z,22.57
2022-08-14T12:28:27.149Z,24.30
2022-08-14T12:38:41.335Z,21.11
2022-08-14T12:48:50.350Z,24.27
2022-08-14T12:58:57.879Z,29.48
2022-08-14T13:09:02.043Z,32.96
2022-08-14T13:19:11.154Z,34.53
2022-08-14T13:29:18.548Z,33.05
2022-08-14T13:39:26.672Z,33.06
2022-08-14T13:49:30.055Z,33.02
2022-08-14T13:59:37.763Z,32.63
2022-08-14T14:09:52.734Z,32.83
2022-08-14T14:19:57.593Z,34.21
2022-08-14T14:30:01.559Z,33.33
2022-08-14T14:40:53.053Z,33.87
2022-08-14T14:50:32.710Z,34.08
2022-08-14T15:00:38.217Z,32.07
2022-08-14T15:10:40.905Z,34.86
2022-08-14T15:20:54.036Z,34.60
2022-08-14T15:30:59.351Z,34.82
2022-08-14T15:41:08.536Z,34.66
2022-08-14T15:51:11.626Z,35.02
2022-08-14T16:01:43.642Z,35.63
2022-08-14T16:11:47.475Z,35.09
2022-08-14T16:22:57.342Z,35.93
2022-08-14T16:32:33.203Z,34.79
2022-08-14T16:43:04.384Z,35.72
2022-08-14T16:53:07.410Z,35.88
2022-08-14T17:03:14.562Z,37.43
2022-08-14T17:13:18.283Z,38.14
2022-08-14T17:23:22.406Z,38.27
2022-08-14T17:33:40.583Z,39.00
2022-08-14T17:43:54.916Z,40.06
2022-08-14T17:54:02.944Z,40.47
2022-08-14T18:04:25.147Z,40.66
2022-08-14T18:14:48.718Z,41.97
2022-08-14T18:24:54.602Z,43.16
2022-08-14T18:35:11.167Z,44.32
2022-08-14T18:45:28.892Z,46.12
2022-08-14T18:55:54.079Z,47.25
2022-08-14T19:05:59.198Z,49.05
2022-08-14T19:16:07.454Z,50.18
2022-08-14T19:26:35.578Z,50.95
2022-08-14T19:37:05.173Z,50.81
2022-08-14T19:47:11.645Z,50.42
2022-08-14T19:57:18.948Z,50.72
2022-08-14T20:07:59.734Z,51.06
2022-08-14T20:17:55.329Z,51.52
2022-08-14T20:28:29.934Z,52.14
2022-08-14T20:38:33.793Z,52.37
2022-08-14T20:48:50.931Z,52.91
2022-08-14T20:58:56.179Z,53.23
2022-08-14T21:09:03.259Z,53.60
2022-08-14T21:19:08.500Z,53.66
2022-08-14T21:29:14.282Z,53.77
2022-08-14T21:39:18.519Z,53.61
2022-08-14T21:49:24.222Z,53.58
2022-08-14T21:59:29.704Z,53.56
2022-08-14T22:09:36.654Z,53.43
2022-08-14T22:19:43.555Z,54.43
2022-08-14T22:29:59.016Z,55.29
2022-08-14T22:40:58.125Z,54.62
2022-08-14T22:50:28.874Z,55.42
2022-08-14T23:00:35.074Z,55.87
2022-08-14T23:10:39.743Z,56.26
2022-08-14T23:20:44.363Z,56.04
2022-08-14T23:30:49.024Z,56.09
2022-08-14T23:40:52.112Z,56.41
2022-08-14T23:50:56.389Z,57.00
